sensor_id;sensor_type;location;lat;lon;timestamp;P1;durP1;ratioP1;P2;durP2;ratioP2
44116;SDS011;29781;49.480;8.512;2023-04-15T00:00:04;13.52;;;6.32;;
44116;SDS011;29781;49.480;8.512;2023-04-15T00:02:30;11.73;;;6.43;;
44116;SDS011;29781;49.480;8.512;2023-04-15T00:04:56;9.45;;;5.30;;
44116;SDS011;29781;49.480;8.512;2023-04-15T00:07:21;7.53;;;5.53;;
44116;SDS011;29781;49.480;8.512;2023-04-15T00:09:47;8.65;;;6.00;;
44116;SDS011;29781;49.480;8.512;2023-04-15T00:12:12;9.07;;;5.65;;
44116;SDS011;29781;49.480;8.512;2023-04-15T00:14:38;9.32;;;5.80;;
44116;SDS011;29781;49.480;8.512;2023-04-15T00:17:04;13.38;;;5.97;;
44116;SDS011;29781;49.480;8.512;2023-04-15T00:19:29;10.13;;;5.47;;
44116;SDS011;29781;49.480;8.512;2023-04-15T00:21:56;11.05;;;6.10;;
44116;SDS011;29781;49.480;8.512;2023-04-15T00:24:22;14.95;;;5.97;;
44116;SDS011;29781;49.480;8.512;2023-04-15T00:26:47;11.25;;;5.57;;
44116;SDS011;29781;49.480;8.512;2023-04-15T00:29:13;11.68;;;5.47;;
44116;SDS011;29781;49.480;8.512;2023-04-15T00:31:39;11.07;;;5.70;;
44116;SDS011;29781;49.480;8.512;2023-04-15T00:34:05;11.73;;;6.85;;
44116;SDS011;29781;49.480;8.512;2023-04-15T00:36:30;11.75;;;6.05;;
44116;SDS011;29781;49.480;8.512;2023-04-15T00:38:57;11.68;;;5.90;;
44116;SDS011;29781;49.480;8.512;2023-04-15T00:41:23;12.15;;;5.43;;
44116;SDS011;29781;49.480;8.512;2023-04-15T00:43:49;8.52;;;5.72;;
44116;SDS011;29781;49.480;8.512;2023-04-15T00:46:15;13.70;;;5.32;;
44116;SDS011;29781;49.480;8.512;2023-04-15T00:48:43;10.13;;;5.65;;
44116;SDS011;29781;49.480;8.512;2023-04-15T00:51:09;13.60;;;6.32;;
44116;SDS011;29781;49.480;8.512;2023-04-15T00:53:35;14.80;;;6.25;;
44116;SDS011;29781;49.480;8.512;2023-04-15T00:56:00;11.50;;;6.00;;
44116;SDS011;29781;49.480;8.512;2023-04-15T00:58:26;11.88;;;6.40;;
44116;SDS011;29781;49.480;8.512;2023-04-15T01:00:52;12.80;;;7.22;;
44116;SDS011;29781;49.480;8.512;2023-04-15T01:03:19;11.40;;;6.38;;
44116;SDS011;29781;49.480;8.512;2023-04-15T01:05:45;16.27;;;6.63;;
44116;SDS011;29781;49.480;8.512;2023-04-15T01:08:10;12.13;;;7.43;;
44116;SDS011;29781;49.480;8.512;2023-04-15T01:10:36;18.27;;;9.00;;
44116;SDS011;29781;49.480;8.512;2023-04-15T01:13:02;15.55;;;8.23;;
44116;SDS011;29781;49.480;8.512;2023-04-15T01:15:28;11.95;;;7.30;;
44116;SDS011;29781;49.480;8.512;2023-04-15T01:17:53;14.50;;;7.40;;
44116;SDS011;29781;49.480;8.512;2023-04-15T01:20:19;14.40;;;8.55;;
44116;SDS011;29781;49.480;8.512;2023-04-15T01:22:46;12.32;;;8.10;;
44116;SDS011;29781;49.480;8.512;2023-04-15T01:25:14;14.52;;;8.43;;
44116;SDS011;29781;49.480;8.512;2023-04-15T01:27:43;14.30;;;8.18;;
44116;SDS011;29781;49.480;8.512;2023-04-15T01:30:09;15.18;;;8.32;;
44116;SDS011;29781;49.480;8.512;2023-04-15T01:32:35;12.82;;;8.02;;
44116;SDS011;29781;49.480;8.512;2023-04-15T01:35:01;13.02;;;8.30;;
44116;SDS011;29781;49.480;8.512;2023-04-15T01:37:26;15.63;;;8.55;;
44116;SDS011;29781;49.480;8.512;2023-04-15T01:39:53;12.57;;;7.55;;
44116;SDS011;29781;49.480;8.512;2023-04-15T01:42:20;11.65;;;7.00;;
44116;SDS011;29781;49.480;8.512;2023-04-15T01:44:45;8.70;;;6.78;;
44116;SDS011;29781;49.480;8.512;2023-04-15T01:47:11;10.50;;;6.93;;
44116;SDS011;29781;49.480;8.512;2023-04-15T01:49:37;10.25;;;6.30;;
44116;SDS011;29781;49.480;8.512;2023-04-15T01:52:02;9.75;;;6.30;;
44116;SDS011;29781;49.480;8.512;2023-04-15T01:54:28;9.02;;;6.40;;
44116;SDS011;29781;49.480;8.512;2023-04-15T01:56:53;10.27;;;6.70;;
44116;SDS011;29781;49.480;8.512;2023-04-15T01:59:19;11.63;;;6.95;;
44116;SDS011;29781;49.480;8.512;2023-04-15T02:01:44;12.45;;;7.32;;
44116;SDS011;29781;49.480;8.512;2023-04-15T02:04:10;13.45;;;7.90;;
44116;SDS011;29781;49.480;8.512;2023-04-15T02:06:44;13.57;;;6.80;;
44116;SDS011;29781;49.480;8.512;2023-04-15T02:09:10;14.88;;;7.20;;
44116;SDS011;29781;49.480;8.512;2023-04-15T02:11:36;11.70;;;7.88;;
44116;SDS011;29781;49.480;8.512;2023-04-15T02:14:02;11.52;;;7.50;;
44116;SDS011;29781;49.480;8.512;2023-04-15T02:16:31;11.23;;;7.10;;
44116;SDS011;29781;49.480;8.512;2023-04-15T02:18:57;11.02;;;7.57;;
44116;SDS011;29781;49.480;8.512;2023-04-15T02:21:24;11.60;;;7.45;;
44116;SDS011;29781;49.480;8.512;2023-04-15T02:23:51;10.68;;;7.68;;
44116;SDS011;29781;49.480;8.512;2023-04-15T02:26:18;12.85;;;7.63;;
44116;SDS011;29781;49.480;8.512;2023-04-15T02:28:43;13.02;;;7.90;;
44116;SDS011;29781;49.480;8.512;2023-04-15T02:31:09;10.40;;;7.53;;
44116;SDS011;29781;49.480;8.512;2023-04-15T02:33:35;13.05;;;8.02;;
44116;SDS011;29781;49.480;8.512;2023-04-15T02:36:01;10.95;;;8.18;;
44116;SDS011;29781;49.480;8.512;2023-04-15T02:38:27;14.20;;;8.27;;
44116;SDS011;29781;49.480;8.512;2023-04-15T02:40:53;11.98;;;7.85;;
44116;SDS011;29781;49.480;8.512;2023-04-15T02:43:18;12.00;;;7.53;;
44116;SDS011;29781;49.480;8.512;2023-04-15T02:45:44;13.10;;;6.78;;
44116;SDS011;29781;49.480;8.512;2023-04-15T02:48:11;12.43;;;7.65;;
44116;SDS011;29781;49.480;8.512;2023-04-15T02:50:36;11.00;;;7.30;;
44116;SDS011;29781;49.480;8.512;2023-04-15T02:53:05;8.57;;;6.93;;
44116;SDS011;29781;49.480;8.512;2023-04-15T02:55:31;11.75;;;7.20;;
44116;SDS011;29781;49.480;8.512;2023-04-15T02:57:56;10.85;;;6.82;;
44116;SDS011;29781;49.480;8.512;2023-04-15T03:00:25;10.70;;;7.00;;
44116;SDS011;29781;49.480;8.512;2023-04-15T03:02:56;11.30;;;7.00;;
44116;SDS011;29781;49.480;8.512;2023-04-15T03:05:28;14.25;;;7.60;;
44116;SDS011;29781;49.480;8.512;2023-04-15T03:07:54;13.02;;;7.60;;
44116;SDS011;29781;49.480;8.512;2023-04-15T03:10:20;11.18;;;7.18;;
44116;SDS011;29781;49.480;8.512;2023-04-15T03:12:46;14.05;;;7.88;;
44116;SDS011;29781;49.480;8.512;2023-04-15T03:15:11;13.32;;;7.78;;
44116;SDS011;29781;49.480;8.512;2023-04-15T03:17:37;17.63;;;7.80;;
44116;SDS011;29781;49.480;8.512;2023-04-15T03:20:03;12.25;;;7.70;;
44116;SDS011;29781;49.480;8.512;2023-04-15T03:22:30;15.75;;;7.25;;
44116;SDS011;29781;49.480;8.512;2023-04-15T03:24:56;15.80;;;7.75;;
44116;SDS011;29781;49.480;8.512;2023-04-15T03:27:22;12.35;;;7.18;;
44116;SDS011;29781;49.480;8.512;2023-04-15T03:29:48;13.60;;;7.35;;
44116;SDS011;29781;49.480;8.512;2023-04-15T03:32:13;12.10;;;7.07;;
44116;SDS011;29781;49.480;8.512;2023-04-15T03:34:39;10.73;;;6.30;;
44116;SDS011;29781;49.480;8.512;2023-04-15T03:37:05;13.35;;;6.65;;
44116;SDS011;29781;49.480;8.512;2023-04-15T03:39:31;11.43;;;6.97;;
44116;SDS011;29781;49.480;8.512;2023-04-15T03:41:57;12.32;;;7.30;;
44116;SDS011;29781;49.480;8.512;2023-04-15T03:44:26;11.85;;;6.72;;
44116;SDS011;29781;49.480;8.512;2023-04-15T03:46:52;11.18;;;6.28;;
44116;SDS011;29781;49.480;8.512;2023-04-15T03:49:18;10.15;;;6.57;;
44116;SDS011;29781;49.480;8.512;2023-04-15T03:51:44;11.52;;;6.70;;
44116;SDS011;29781;49.480;8.512;2023-04-15T03:54:10;11.65;;;5.90;;
44116;SDS011;29781;49.480;8.512;2023-04-15T03:56:36;8.70;;;5.75;;
44116;SDS011;29781;49.480;8.512;2023-04-15T03:59:02;10.07;;;5.97;;
44116;SDS011;29781;49.480;8.512;2023-04-15T04:01:28;12.57;;;6.03;;
44116;SDS011;29781;49.480;8.512;2023-04-15T04:03:53;9.18;;;5.85;;
44116;SDS011;29781;49.480;8.512;2023-04-15T04:06:19;10.30;;;5.53;;
44116;SDS011;29781;49.480;8.512;2023-04-15T04:08:44;8.60;;;5.47;;
44116;SDS011;29781;49.480;8.512;2023-04-15T04:11:10;8.85;;;5.65;;
44116;SDS011;29781;49.480;8.512;2023-04-15T04:13:35;6.38;;;4.95;;
44116;SDS011;29781;49.480;8.512;2023-04-15T04:16:01;6.78;;;5.07;;
44116;SDS011;29781;49.480;8.512;2023-04-15T04:18:28;6.20;;;5.30;;
44116;SDS011;29781;49.480;8.512;2023-04-15T04:20:55;6.10;;;4.75;;
44116;SDS011;29781;49.480;8.512;2023-04-15T04:23:20;9.30;;;5.32;;
44116;SDS011;29781;49.480;8.512;2023-04-15T04:25:46;7.40;;;4.93;;
44116;SDS011;29781;49.480;8.512;2023-04-15T04:28:11;5.78;;;4.93;;
44116;SDS011;29781;49.480;8.512;2023-04-15T04:30:37;6.88;;;4.97;;
44116;SDS011;29781;49.480;8.512;2023-04-15T04:33:03;8.05;;;5.15;;
44116;SDS011;29781;49.480;8.512;2023-04-15T04:35:29;13.13;;;5.53;;
44116;SDS011;29781;49.480;8.512;2023-04-15T04:37:54;7.72;;;5.03;;
44116;SDS011;29781;49.480;8.512;2023-04-15T04:40:20;8.30;;;5.05;;
44116;SDS011;29781;49.480;8.512;2023-04-15T04:42:46;6.45;;;4.57;;
44116;SDS011;29781;49.480;8.512;2023-04-15T04:45:11;6.82;;;4.88;;
44116;SDS011;29781;49.480;8.512;2023-04-15T04:47:37;11.73;;;5.03;;
44116;SDS011;29781;49.480;8.512;2023-04-15T04:50:02;7.10;;;4.63;;
44116;SDS011;29781;49.480;8.512;2023-04-15T04:52:28;7.30;;;5.05;;
44116;SDS011;29781;49.480;8.512;2023-04-15T04:54:54;6.72;;;4.60;;
44116;SDS011;29781;49.480;8.512;2023-04-15T04:57:19;6.15;;;4.93;;
44116;SDS011;29781;49.480;8.512;2023-04-15T04:59:45;7.35;;;5.95;;
44116;SDS011;29781;49.480;8.512;2023-04-15T05:02:10;8.80;;;5.78;;
44116;SDS011;29781;49.480;8.512;2023-04-15T05:04:36;7.90;;;5.57;;
44116;SDS011;29781;49.480;8.512;2023-04-15T05:07:01;8.73;;;6.30;;
44116;SDS011;29781;49.480;8.512;2023-04-15T05:09:27;9.02;;;5.57;;
44116;SDS011;29781;49.480;8.512;2023-04-15T05:11:53;6.55;;;5.45;;
44116;SDS011;29781;49.480;8.512;2023-04-15T05:14:20;8.15;;;5.45;;
44116;SDS011;29781;49.480;8.512;2023-04-15T05:16:45;10.90;;;5.97;;
44116;SDS011;29781;49.480;8.512;2023-04-15T05:19:11;10.07;;;5.65;;
44116;SDS011;29781;49.480;8.512;2023-04-15T05:21:36;12.55;;;6.13;;
44116;SDS011;29781;49.480;8.512;2023-04-15T05:24:02;13.30;;;6.25;;
44116;SDS011;29781;49.480;8.512;2023-04-15T05:26:28;9.13;;;5.93;;
44116;SDS011;29781;49.480;8.512;2023-04-15T05:28:53;11.73;;;6.50;;
44116;SDS011;29781;49.480;8.512;2023-04-15T05:31:19;14.35;;;7.38;;
44116;SDS011;29781;49.480;8.512;2023-04-15T05:33:44;8.98;;;6.28;;
44116;SDS011;29781;49.480;8.512;2023-04-15T05:36:10;13.80;;;6.50;;
44116;SDS011;29781;49.480;8.512;2023-04-15T05:38:36;13.18;;;6.78;;
44116;SDS011;29781;49.480;8.512;2023-04-15T05:41:01;11.73;;;6.70;;
44116;SDS011;29781;49.480;8.512;2023-04-15T05:43:27;11.98;;;7.28;;
44116;SDS011;29781;49.480;8.512;2023-04-15T05:45:52;13.05;;;7.35;;
44116;SDS011;29781;49.480;8.512;2023-04-15T05:48:18;15.43;;;7.28;;
44116;SDS011;29781;49.480;8.512;2023-04-15T05:50:43;9.48;;;6.75;;
44116;SDS011;29781;49.480;8.512;2023-04-15T05:53:09;12.18;;;7.80;;
44116;SDS011;29781;49.480;8.512;2023-04-15T05:55:35;13.18;;;7.00;;
44116;SDS011;29781;49.480;8.512;2023-04-15T05:58:01;13.13;;;7.72;;
44116;SDS011;29781;49.480;8.512;2023-04-15T06:00:27;16.23;;;7.93;;
44116;SDS011;29781;49.480;8.512;2023-04-15T06:02:53;14.13;;;7.93;;
44116;SDS011;29781;49.480;8.512;2023-04-15T06:05:20;12.35;;;7.47;;
44116;SDS011;29781;49.480;8.512;2023-04-15T06:07:45;14.52;;;7.68;;
44116;SDS011;29781;49.480;8.512;2023-04-15T06:10:10;17.05;;;7.85;;
44116;SDS011;29781;49.480;8.512;2023-04-15T06:12:36;14.52;;;7.80;;
44116;SDS011;29781;49.480;8.512;2023-04-15T06:15:02;11.68;;;8.00;;
44116;SDS011;29781;49.480;8.512;2023-04-15T06:17:28;17.48;;;8.40;;
44116;SDS011;29781;49.480;8.512;2023-04-15T06:19:53;13.63;;;7.80;;
44116;SDS011;29781;49.480;8.512;2023-04-15T06:22:23;14.93;;;9.35;;
44116;SDS011;29781;49.480;8.512;2023-04-15T06:24:48;14.02;;;9.63;;
44116;SDS011;29781;49.480;8.512;2023-04-15T06:27:15;15.48;;;8.25;;
44116;SDS011;29781;49.480;8.512;2023-04-15T06:29:41;16.38;;;8.65;;
44116;SDS011;29781;49.480;8.512;2023-04-15T06:32:06;17.85;;;8.85;;
44116;SDS011;29781;49.480;8.512;2023-04-15T06:34:32;18.25;;;9.10;;
44116;SDS011;29781;49.480;8.512;2023-04-15T06:36:57;16.10;;;8.75;;
44116;SDS011;29781;49.480;8.512;2023-04-15T06:39:23;12.07;;;8.27;;
44116;SDS011;29781;49.480;8.512;2023-04-15T06:41:48;13.75;;;8.82;;
44116;SDS011;29781;49.480;8.512;2023-04-15T06:44:14;16.77;;;8.60;;
44116;SDS011;29781;49.480;8.512;2023-04-15T06:46:40;14.52;;;8.80;;
44116;SDS011;29781;49.480;8.512;2023-04-15T06:49:05;12.45;;;7.70;;
44116;SDS011;29781;49.480;8.512;2023-04-15T06:51:33;16.63;;;8.85;;
44116;SDS011;29781;49.480;8.512;2023-04-15T06:54:00;16.13;;;8.65;;
44116;SDS011;29781;49.480;8.512;2023-04-15T06:56:26;16.73;;;9.65;;
44116;SDS011;29781;49.480;8.512;2023-04-15T06:58:52;15.57;;;8.98;;
44116;SDS011;29781;49.480;8.512;2023-04-15T07:01:17;17.05;;;9.13;;
44116;SDS011;29781;49.480;8.512;2023-04-15T07:03:43;14.95;;;9.88;;
44116;SDS011;29781;49.480;8.512;2023-04-15T07:06:09;19.50;;;10.10;;
44116;SDS011;29781;49.480;8.512;2023-04-15T07:08:34;18.52;;;9.23;;
44116;SDS011;29781;49.480;8.512;2023-04-15T07:11:00;18.85;;;9.35;;
44116;SDS011;29781;49.480;8.512;2023-04-15T07:13:26;13.02;;;8.60;;
44116;SDS011;29781;49.480;8.512;2023-04-15T07:15:51;12.45;;;8.30;;
44116;SDS011;29781;49.480;8.512;2023-04-15T07:18:17;14.32;;;8.48;;
44116;SDS011;29781;49.480;8.512;2023-04-15T07:20:42;15.60;;;9.23;;
44116;SDS011;29781;49.480;8.512;2023-04-15T07:23:08;17.67;;;8.35;;
44116;SDS011;29781;49.480;8.512;2023-04-15T07:25:33;12.57;;;8.63;;
44116;SDS011;29781;49.480;8.512;2023-04-15T07:27:59;13.60;;;9.40;;
44116;SDS011;29781;49.480;8.512;2023-04-15T07:30:26;12.73;;;8.60;;
44116;SDS011;29781;49.480;8.512;2023-04-15T07:32:51;12.93;;;8.63;;
44116;SDS011;29781;49.480;8.512;2023-04-15T07:35:18;15.30;;;8.45;;
44116;SDS011;29781;49.480;8.512;2023-04-15T07:37:45;9.30;;;8.20;;
44116;SDS011;29781;49.480;8.512;2023-04-15T07:40:11;12.90;;;8.88;;
44116;SDS011;29781;49.480;8.512;2023-04-15T07:42:38;9.93;;;7.63;;
44116;SDS011;29781;49.480;8.512;2023-04-15T07:45:04;14.07;;;8.52;;
44116;SDS011;29781;49.480;8.512;2023-04-15T07:47:30;11.85;;;8.20;;
44116;SDS011;29781;49.480;8.512;2023-04-15T07:49:56;11.15;;;8.93;;
44116;SDS011;29781;49.480;8.512;2023-04-15T07:52:21;15.20;;;8.60;;
44116;SDS011;29781;49.480;8.512;2023-04-15T07:54:47;15.40;;;8.90;;
44116;SDS011;29781;49.480;8.512;2023-04-15T07:57:12;14.02;;;8.88;;
44116;SDS011;29781;49.480;8.512;2023-04-15T07:59:38;13.75;;;8.88;;
44116;SDS011;29781;49.480;8.512;2023-04-15T08:02:03;13.48;;;9.13;;
44116;SDS011;29781;49.480;8.512;2023-04-15T08:04:29;15.52;;;8.68;;
44116;SDS011;29781;49.480;8.512;2023-04-15T08:06:55;14.85;;;8.85;;
44116;SDS011;29781;49.480;8.512;2023-04-15T08:09:20;13.80;;;8.68;;
44116;SDS011;29781;49.480;8.512;2023-04-15T08:11:47;14.57;;;8.85;;
44116;SDS011;29781;49.480;8.512;2023-04-15T08:14:13;15.90;;;8.45;;
44116;SDS011;29781;49.480;8.512;2023-04-15T08:16:39;11.65;;;8.35;;
44116;SDS011;29781;49.480;8.512;2023-04-15T08:19:05;10.85;;;7.75;;
44116;SDS011;29781;49.480;8.512;2023-04-15T08:21:31;12.10;;;8.23;;
44116;SDS011;29781;49.480;8.512;2023-04-15T08:23:56;12.43;;;7.75;;
44116;SDS011;29781;49.480;8.512;2023-04-15T08:26:22;14.50;;;7.88;;
44116;SDS011;29781;49.480;8.512;2023-04-15T08:28:48;14.65;;;8.43;;
44116;SDS011;29781;49.480;8.512;2023-04-15T08:31:14;14.60;;;8.00;;
44116;SDS011;29781;49.480;8.512;2023-04-15T08:33:40;9.32;;;7.20;;
44116;SDS011;29781;49.480;8.512;2023-04-15T08:36:06;11.00;;;7.45;;
44116;SDS011;29781;49.480;8.512;2023-04-15T08:38:32;12.35;;;7.68;;
44116;SDS011;29781;49.480;8.512;2023-04-15T08:40:59;10.20;;;7.10;;
44116;SDS011;29781;49.480;8.512;2023-04-15T08:43:30;9.65;;;7.15;;
44116;SDS011;29781;49.480;8.512;2023-04-15T08:45:58;12.50;;;6.43;;
44116;SDS011;29781;49.480;8.512;2023-04-15T08:48:27;11.50;;;6.20;;
44116;SDS011;29781;49.480;8.512;2023-04-15T08:53:23;10.32;;;5.60;;
44116;SDS011;29781;49.480;8.512;2023-04-15T08:55:51;12.15;;;5.40;;
44116;SDS011;29781;49.480;8.512;2023-04-15T08:58:18;8.88;;;5.28;;
44116;SDS011;29781;49.480;8.512;2023-04-15T09:00:44;10.15;;;5.10;;
44116;SDS011;29781;49.480;8.512;2023-04-15T09:03:09;9.20;;;4.72;;
44116;SDS011;29781;49.480;8.512;2023-04-15T09:05:35;8.98;;;4.90;;
44116;SDS011;29781;49.480;8.512;2023-04-15T09:08:01;10.32;;;4.60;;
44116;SDS011;29781;49.480;8.512;2023-04-15T09:10:28;7.13;;;4.85;;
44116;SDS011;29781;49.480;8.512;2023-04-15T09:12:54;6.43;;;3.58;;
44116;SDS011;29781;49.480;8.512;2023-04-15T09:15:21;5.82;;;3.35;;
44116;SDS011;29781;49.480;8.512;2023-04-15T09:17:49;5.78;;;3.30;;
44116;SDS011;29781;49.480;8.512;2023-04-15T09:20:15;5.05;;;2.78;;
44116;SDS011;29781;49.480;8.512;2023-04-15T09:22:44;4.25;;;3.20;;
44116;SDS011;29781;49.480;8.512;2023-04-15T09:30:14;7.00;;;3.53;;
44116;SDS011;29781;49.480;8.512;2023-04-15T09:32:57;7.82;;;3.88;;
44116;SDS011;29781;49.480;8.512;2023-04-15T09:35:24;7.30;;;3.78;;
44116;SDS011;29781;49.480;8.512;2023-04-15T09:37:51;4.97;;;2.90;;
44116;SDS011;29781;49.480;8.512;2023-04-15T09:40:33;4.80;;;3.78;;
44116;SDS011;29781;49.480;8.512;2023-04-15T09:42:59;6.88;;;4.50;;
44116;SDS011;29781;49.480;8.512;2023-04-15T09:45:26;6.38;;;3.20;;
44116;SDS011;29781;49.480;8.512;2023-04-15T09:47:52;6.00;;;3.70;;
44116;SDS011;29781;49.480;8.512;2023-04-15T09:50:18;5.43;;;4.10;;
44116;SDS011;29781;49.480;8.512;2023-04-15T09:52:44;5.22;;;3.92;;
44116;SDS011;29781;49.480;8.512;2023-04-15T09:55:10;4.50;;;3.75;;
44116;SDS011;29781;49.480;8.512;2023-04-15T09:57:37;5.70;;;4.10;;
44116;SDS011;29781;49.480;8.512;2023-04-15T10:00:06;5.60;;;3.78;;
44116;SDS011;29781;49.480;8.512;2023-04-15T10:02:33;8.38;;;4.47;;
44116;SDS011;29781;49.480;8.512;2023-04-15T10:05:00;5.68;;;4.18;;
44116;SDS011;29781;49.480;8.512;2023-04-15T10:07:26;7.00;;;4.70;;
44116;SDS011;29781;49.480;8.512;2023-04-15T10:09:53;6.47;;;5.32;;
44116;SDS011;29781;49.480;8.512;2023-04-15T10:12:19;8.32;;;5.07;;
44116;SDS011;29781;49.480;8.512;2023-04-15T10:14:51;6.65;;;5.13;;
44116;SDS011;29781;49.480;8.512;2023-04-15T10:17:21;6.75;;;4.55;;
44116;SDS011;29781;49.480;8.512;2023-04-15T10:19:47;9.98;;;5.25;;
44116;SDS011;29781;49.480;8.512;2023-04-15T10:22:14;7.07;;;4.78;;
44116;SDS011;29781;49.480;8.512;2023-04-15T10:24:41;7.38;;;4.70;;
44116;SDS011;29781;49.480;8.512;2023-04-15T10:27:09;5.88;;;5.03;;
44116;SDS011;29781;49.480;8.512;2023-04-15T10:29:35;5.70;;;5.13;;
44116;SDS011;29781;49.480;8.512;2023-04-15T10:32:01;7.25;;;5.25;;
44116;SDS011;29781;49.480;8.512;2023-04-15T10:34:27;8.13;;;5.00;;
44116;SDS011;29781;49.480;8.512;2023-04-15T10:37:02;7.72;;;4.90;;
44116;SDS011;29781;49.480;8.512;2023-04-15T10:39:43;5.18;;;4.40;;
44116;SDS011;29781;49.480;8.512;2023-04-15T10:44:36;5.30;;;3.72;;
44116;SDS011;29781;49.480;8.512;2023-04-15T10:47:13;5.20;;;3.40;;
44116;SDS011;29781;49.480;8.512;2023-04-15T10:49:43;4.20;;;3.65;;
44116;SDS011;29781;49.480;8.512;2023-04-15T10:52:10;5.60;;;3.83;;
44116;SDS011;29781;49.480;8.512;2023-04-15T10:54:36;3.92;;;3.53;;
44116;SDS011;29781;49.480;8.512;2023-04-15T10:59:29;4.65;;;3.60;;
44116;SDS011;29781;49.480;8.512;2023-04-15T11:01:56;3.60;;;3.15;;
44116;SDS011;29781;49.480;8.512;2023-04-15T11:07:38;4.78;;;3.55;;
44116;SDS011;29781;49.480;8.512;2023-04-15T11:12:42;3.28;;;2.53;;
44116;SDS011;29781;49.480;8.512;2023-04-15T11:15:31;5.78;;;2.60;;
44116;SDS011;29781;49.480;8.512;2023-04-15T11:17:59;6.70;;;3.30;;
44116;SDS011;29781;49.480;8.512;2023-04-15T11:20:36;2.83;;;2.58;;
44116;SDS011;29781;49.480;8.512;2023-04-15T11:23:03;4.97;;;3.17;;
44116;SDS011;29781;49.480;8.512;2023-04-15T11:25:30;5.57;;;2.80;;
44116;SDS011;29781;49.480;8.512;2023-04-15T11:27:58;4.03;;;2.58;;
44116;SDS011;29781;49.480;8.512;2023-04-15T11:30:26;4.60;;;2.78;;
44116;SDS011;29781;49.480;8.512;2023-04-15T11:32:54;4.72;;;2.70;;
44116;SDS011;29781;49.480;8.512;2023-04-15T11:35:24;4.28;;;2.30;;
44116;SDS011;29781;49.480;8.512;2023-04-15T11:37:50;3.75;;;2.45;;
44116;SDS011;29781;49.480;8.512;2023-04-15T11:40:16;6.10;;;2.60;;
44116;SDS011;29781;49.480;8.512;2023-04-15T11:45:30;7.50;;;2.50;;
44116;SDS011;29781;49.480;8.512;2023-04-15T11:48:10;3.97;;;3.40;;
44116;SDS011;29781;49.480;8.512;2023-04-15T11:50:37;4.13;;;2.95;;
44116;SDS011;29781;49.480;8.512;2023-04-15T11:53:05;4.30;;;3.30;;
44116;SDS011;29781;49.480;8.512;2023-04-15T11:55:51;3.97;;;2.72;;
44116;SDS011;29781;49.480;8.512;2023-04-15T11:58:22;4.20;;;3.08;;
44116;SDS011;29781;49.480;8.512;2023-04-15T12:03:18;4.15;;;2.80;;
44116;SDS011;29781;49.480;8.512;2023-04-15T12:08:52;5.80;;;3.30;;
44116;SDS011;29781;49.480;8.512;2023-04-15T12:11:46;5.15;;;2.70;;
44116;SDS011;29781;49.480;8.512;2023-04-15T12:14:24;5.55;;;3.15;;
44116;SDS011;29781;49.480;8.512;2023-04-15T12:16:53;8.10;;;3.03;;
44116;SDS011;29781;49.480;8.512;2023-04-15T12:19:23;4.05;;;2.83;;
44116;SDS011;29781;49.480;8.512;2023-04-15T12:21:50;5.35;;;3.08;;
44116;SDS011;29781;49.480;8.512;2023-04-15T12:24:20;4.57;;;3.10;;
44116;SDS011;29781;49.480;8.512;2023-04-15T12:26:56;3.95;;;3.05;;
44116;SDS011;29781;49.480;8.512;2023-04-15T12:29:27;4.90;;;2.90;;
44116;SDS011;29781;49.480;8.512;2023-04-15T12:31:55;5.68;;;2.70;;
44116;SDS011;29781;49.480;8.512;2023-04-15T12:34:30;3.85;;;2.50;;
44116;SDS011;29781;49.480;8.512;2023-04-15T12:36:57;4.45;;;2.85;;
44116;SDS011;29781;49.480;8.512;2023-04-15T12:39:24;4.80;;;2.47;;
44116;SDS011;29781;49.480;8.512;2023-04-15T12:41:52;6.55;;;2.42;;
44116;SDS011;29781;49.480;8.512;2023-04-15T12:44:19;4.78;;;2.13;;
44116;SDS011;29781;49.480;8.512;2023-04-15T12:46:46;2.72;;;1.63;;
44116;SDS011;29781;49.480;8.512;2023-04-15T12:49:12;4.13;;;1.23;;
44116;SDS011;29781;49.480;8.512;2023-04-15T12:51:43;2.15;;;1.20;;
44116;SDS011;29781;49.480;8.512;2023-04-15T12:54:09;2.10;;;1.17;;
44116;SDS011;29781;49.480;8.512;2023-04-15T12:56:35;2.33;;;1.33;;
44116;SDS011;29781;49.480;8.512;2023-04-15T12:59:00;2.00;;;1.27;;
44116;SDS011;29781;49.480;8.512;2023-04-15T13:01:26;2.08;;;1.13;;
44116;SDS011;29781;49.480;8.512;2023-04-15T13:03:52;1.77;;;0.90;;
44116;SDS011;29781;49.480;8.512;2023-04-15T13:06:17;1.55;;;1.00;;
44116;SDS011;29781;49.480;8.512;2023-04-15T13:08:43;2.65;;;1.00;;
44116;SDS011;29781;49.480;8.512;2023-04-15T13:11:09;2.13;;;1.00;;
44116;SDS011;29781;49.480;8.512;2023-04-15T13:13:34;4.10;;;1.40;;
44116;SDS011;29781;49.480;8.512;2023-04-15T13:16:00;1.50;;;0.70;;
44116;SDS011;29781;49.480;8.512;2023-04-15T13:18:26;2.00;;;0.80;;
44116;SDS011;29781;49.480;8.512;2023-04-15T13:20:52;3.33;;;0.90;;
44116;SDS011;29781;49.480;8.512;2023-04-15T13:23:18;1.50;;;0.80;;
44116;SDS011;29781;49.480;8.512;2023-04-15T13:25:46;1.50;;;0.93;;
44116;SDS011;29781;49.480;8.512;2023-04-15T13:28:11;2.28;;;1.02;;
44116;SDS011;29781;49.480;8.512;2023-04-15T13:30:37;3.05;;;0.90;;
44116;SDS011;29781;49.480;8.512;2023-04-15T13:33:03;1.75;;;1.00;;
44116;SDS011;29781;49.480;8.512;2023-04-15T13:35:30;1.10;;;1.00;;
44116;SDS011;29781;49.480;8.512;2023-04-15T13:37:56;1.63;;;1.40;;
44116;SDS011;29781;49.480;8.512;2023-04-15T13:40:22;1.92;;;1.20;;
44116;SDS011;29781;49.480;8.512;2023-04-15T13:42:47;2.25;;;1.20;;
44116;SDS011;29781;49.480;8.512;2023-04-15T13:45:13;2.17;;;1.30;;
44116;SDS011;29781;49.480;8.512;2023-04-15T13:47:39;1.15;;;1.02;;
44116;SDS011;29781;49.480;8.512;2023-04-15T13:50:04;1.63;;;1.05;;
44116;SDS011;29781;49.480;8.512;2023-04-15T13:52:30;2.47;;;1.05;;
44116;SDS011;29781;49.480;8.512;2023-04-15T13:54:56;2.83;;;1.33;;
44116;SDS011;29781;49.480;8.512;2023-04-15T13:57:22;2.40;;;0.98;;
44116;SDS011;29781;49.480;8.512;2023-04-15T13:59:48;2.95;;;1.13;;
44116;SDS011;29781;49.480;8.512;2023-04-15T14:02:14;1.15;;;1.05;;
44116;SDS011;29781;49.480;8.512;2023-04-15T14:04:40;1.85;;;0.88;;
44116;SDS011;29781;49.480;8.512;2023-04-15T14:07:05;1.08;;;0.98;;
44116;SDS011;29781;49.480;8.512;2023-04-15T14:09:31;3.20;;;1.00;;
44116;SDS011;29781;49.480;8.512;2023-04-15T14:11:57;2.58;;;1.23;;
44116;SDS011;29781;49.480;8.512;2023-04-15T14:14:24;8.85;;;1.70;;
44116;SDS011;29781;49.480;8.512;2023-04-15T14:16:49;1.73;;;1.40;;
44116;SDS011;29781;49.480;8.512;2023-04-15T14:19:15;4.47;;;1.92;;
44116;SDS011;29781;49.480;8.512;2023-04-15T14:21:40;3.38;;;1.67;;
44116;SDS011;29781;49.480;8.512;2023-04-15T14:24:06;4.20;;;1.95;;
44116;SDS011;29781;49.480;8.512;2023-04-15T14:26:31;3.05;;;2.30;;
44116;SDS011;29781;49.480;8.512;2023-04-15T14:28:57;5.15;;;2.67;;
44116;SDS011;29781;49.480;8.512;2023-04-15T14:31:23;3.90;;;2.45;;
44116;SDS011;29781;49.480;8.512;2023-04-15T14:33:48;2.95;;;2.40;;
44116;SDS011;29781;49.480;8.512;2023-04-15T14:36:14;2.50;;;2.30;;
44116;SDS011;29781;49.480;8.512;2023-04-15T14:38:39;3.08;;;2.28;;
44116;SDS011;29781;49.480;8.512;2023-04-15T14:41:05;1.73;;;1.63;;
44116;SDS011;29781;49.480;8.512;2023-04-15T14:43:32;2.75;;;1.83;;
44116;SDS011;29781;49.480;8.512;2023-04-15T14:45:58;2.63;;;2.00;;
44116;SDS011;29781;49.480;8.512;2023-04-15T14:48:23;2.20;;;2.00;;
44116;SDS011;29781;49.480;8.512;2023-04-15T14:50:52;2.65;;;2.00;;
44116;SDS011;29781;49.480;8.512;2023-04-15T14:53:18;2.15;;;1.70;;
44116;SDS011;29781;49.480;8.512;2023-04-15T14:55:43;1.50;;;1.40;;
44116;SDS011;29781;49.480;8.512;2023-04-15T14:58:09;1.55;;;1.45;;
44116;SDS011;29781;49.480;8.512;2023-04-15T15:00:36;1.58;;;1.45;;
44116;SDS011;29781;49.480;8.512;2023-04-15T15:03:04;1.60;;;1.50;;